Ninde, Virginia
Current Conditions -  °F | °C
As of 8:56 AM on Saturday 22 Nov 2014 (Local Time) from KNYG Reporting Station
Clear Clear  
Wind Chill: -4°   Ceiling: Unl
Heat Index:   Visibility: 10mi
Dew Point: -7°   Wind: 14mph
Humidity: 54%   Direction: 200°SSW
Pressure: 30.54"   Gusts: NA
Location:  38.27°N, 77.06°W
Report Text: KNYG 221356Z AUTO 20012KT 10SM CLR 01/M07 A3054 RMK AO2 SLP343 T00111072 FZRANO $
Loading
Personal Weather Stations






























Interactive Weather Map New forecast layout! Learn more

10-Day Weather Forecast

Advertisements
Track Severe Weather on mobile